Time;durP1;ratioP1;P1;durP2;ratioP2;P2;SDS_P1;SDS_P2;PMS_P1;PMS_P2;Temp;Humidity;BMP_temperature;BMP_pressure;BME280_temperature;BME280_humidity;BME280_pressure;Samples;Min_cycle;Max_cycle;Signal;HPM_P1;HPM_P2
2021/11/19 00:01:30;;;;;;;31.85;23.33;;;;;;;;;;143736;587;46012;-57
2021/11/19 00:03:57;;;;;;;25.80;18.83;;;;;;;;;;143740;580;46022;-59
2021/11/19 00:06:24;;;;;;;35.05;25.30;;;;;;;;;;143733;588;46012;-59
2021/11/19 00:08:51;;;;;;;29.02;19.87;;;;;;;;;;143739;645;46020;-58
2021/11/19 00:11:29;;;;;;;32.65;21.52;;;;;;;;;;143741;654;45022;-59
2021/11/19 00:13:57;;;;;;;35.20;26.15;;;;;;;;;;143735;591;46023;-59
2021/11/19 00:16:27;;;;;;;39.15;26.37;;;;;;;;;;143739;582;46020;-57
2021/11/19 00:18:56;;;;;;;43.15;29.42;;;;;;;;;;143737;586;46019;-57
2021/11/19 00:21:25;;;;;;;32.08;24.67;;;;;;;;;;143738;591;45021;-57
2021/11/19 00:23:53;;;;;;;42.30;26.95;;;;;;;;;;143740;578;46020;-59
2021/11/19 00:26:22;;;;;;;19.40;14.57;;;;;;;;;;143737;613;46013;-57
2021/11/19 00:28:49;;;;;;;17.42;14.40;;;;;;;;;;143739;564;46020;-58
2021/11/19 00:31:17;;;;;;;17.70;13.77;;;;;;;;;;143740;624;46012;-58
2021/11/19 00:33:45;;;;;;;17.02;13.43;;;;;;;;;;143738;585;46021;-56
2021/11/19 00:36:18;;;;;;;18.58;14.68;;;;;;;;;;143733;697;46012;-57
2021/11/19 00:38:47;;;;;;;17.83;13.70;;;;;;;;;;143731;699;46020;-59
2021/11/19 00:41:14;;;;;;;17.87;14.05;;;;;;;;;;143740;716;46012;-58
2021/11/19 00:43:42;;;;;;;19.83;15.38;;;;;;;;;;143741;574;46023;-58
2021/11/19 00:46:10;;;;;;;22.67;14.90;;;;;;;;;;143738;682;46012;-57
2021/11/19 00:48:37;;;;;;;22.33;15.90;;;;;;;;;;143734;617;46021;-58
2021/11/19 00:51:15;;;;;;;19.67;15.18;;;;;;;;;;143743;631;45020;-59
2021/11/19 00:53:45;;;;;;;22.15;15.68;;;;;;;;;;143740;662;46020;-58
2021/11/19 00:56:18;;;;;;;21.40;16.70;;;;;;;;;;143739;574;46013;-58
2021/11/19 00:58:46;;;;;;;24.00;18.23;;;;;;;;;;143740;586;46020;-57
2021/11/19 01:01:19;;;;;;;24.10;16.15;;;;;;;;;;143740;569;45028;-57
2021/11/19 01:03:47;;;;;;;20.35;15.57;;;;;;;;;;143735;616;46022;-58
2021/11/19 01:06:15;;;;;;;20.60;16.05;;;;;;;;;;143736;661;46012;-58
2021/11/19 01:08:42;;;;;;;21.67;16.77;;;;;;;;;;143739;564;46020;-58
2021/11/19 01:11:12;;;;;;;21.35;16.77;;;;;;;;;;143743;585;46012;-57
2021/11/19 01:13:42;;;;;;;21.20;15.48;;;;;;;;;;143739;602;46020;-58
2021/11/19 01:16:14;;;;;;;23.92;14.63;;;;;;;;;;143738;591;46012;-57
2021/11/19 01:18:45;;;;;;;19.62;16.33;;;;;;;;;;143740;677;46019;-57
2021/11/19 01:21:24;;;;;;;20.23;16.35;;;;;;;;;;143743;623;45020;-57
2021/11/19 01:23:52;;;;;;;24.15;19.02;;;;;;;;;;143740;615;46020;-57
2021/11/19 01:26:26;;;;;;;22.70;17.73;;;;;;;;;;143741;567;46021;-58
2021/11/19 01:28:56;;;;;;;26.67;18.95;;;;;;;;;;143736;614;46020;-57
2021/11/19 01:31:27;;;;;;;27.02;18.95;;;;;;;;;;143742;585;45020;-58
2021/11/19 01:33:54;;;;;;;28.67;20.88;;;;;;;;;;143740;570;46021;-58
2021/11/19 01:36:22;;;;;;;30.37;21.08;;;;;;;;;;143737;662;46012;-58
2021/11/19 01:38:50;;;;;;;25.37;19.42;;;;;;;;;;143741;590;46018;-57
2021/11/19 01:41:33;;;;;;;31.10;21.50;;;;;;;;;;143739;613;45021;-58
2021/11/19 01:44:09;;;;;;;31.45;20.58;;;;;;;;;;143739;595;49020;-58
2021/11/19 01:46:36;;;;;;;24.00;20.02;;;;;;;;;;143735;570;46012;-57
2021/11/19 01:49:04;;;;;;;27.50;20.12;;;;;;;;;;143737;636;46021;-58
2021/11/19 01:51:45;;;;;;;27.05;19.85;;;;;;;;;;143743;643;45020;-57
2021/11/19 01:54:36;;;;;;;29.10;21.33;;;;;;;;;;143736;587;46022;-57
2021/11/19 01:57:13;;;;;;;29.08;21.48;;;;;;;;;;143740;572;46012;-56
2021/11/19 01:59:48;;;;;;;26.92;20.75;;;;;;;;;;143740;652;46018;-56
2021/11/19 02:02:25;;;;;;;28.55;20.58;;;;;;;;;;143739;570;45020;-56
2021/11/19 02:05:01;;;;;;;29.12;21.58;;;;;;;;;;143736;580;46023;-57
2021/11/19 02:07:44;;;;;;;28.70;22.02;;;;;;;;;;143740;598;46026;-58
2021/11/19 02:10:44;;;;;;;31.92;23.12;;;;;;;;;;143734;580;47914;-57
2021/11/19 02:13:42;;;;;;;31.05;22.90;;;;;;;;;;143742;605;46014;-58
2021/11/19 02:16:49;;;;;;;29.83;21.25;;;;;;;;;;143741;584;46020;-56
2021/11/19 02:19:35;;;;;;;31.92;22.67;;;;;;;;;;143741;632;46020;-57
2021/11/19 02:22:16;;;;;;;33.95;23.58;;;;;;;;;;143736;592;46018;-58
2021/11/19 02:24:56;;;;;;;30.37;23.38;;;;;;;;;;143740;725;45020;-58
2021/11/19 02:27:34;;;;;;;32.35;23.12;;;;;;;;;;143737;595;46023;-57
2021/11/19 02:30:20;;;;;;;29.77;21.45;;;;;;;;;;143740;627;46012;-58
2021/11/19 02:32:52;;;;;;;29.70;21.90;;;;;;;;;;143744;625;45046;-57
2021/11/19 02:35:28;;;;;;;26.95;19.27;;;;;;;;;;143743;635;45021;-57
2021/11/19 02:38:06;;;;;;;26.67;20.50;;;;;;;;;;143741;586;46020;-56
2021/11/19 02:40:36;;;;;;;25.45;18.35;;;;;;;;;;143740;587;46013;-56
2021/11/19 02:43:28;;;;;;;30.15;20.00;;;;;;;;;;143739;571;46021;-58
2021/11/19 02:45:56;;;;;;;30.55;19.92;;;;;;;;;;143744;659;45020;-56
2021/11/19 02:48:28;;;;;;;26.50;18.25;;;;;;;;;;143736;570;46021;-58
2021/11/19 02:50:57;;;;;;;24.15;18.50;;;;;;;;;;143741;572;46012;-57
2021/11/19 02:53:24;;;;;;;24.00;17.75;;;;;;;;;;143741;575;46020;-56
2021/11/19 02:55:54;;;;;;;28.02;19.48;;;;;;;;;;143744;682;45021;-57
2021/11/19 02:58:32;;;;;;;24.40;17.67;;;;;;;;;;143741;569;46020;-58
2021/11/19 03:01:23;;;;;;;29.23;20.17;;;;;;;;;;143741;629;46012;-56
2021/11/19 03:04:13;;;;;;;26.48;18.60;;;;;;;;;;143739;605;46018;-57
2021/11/19 03:06:49;;;;;;;25.88;18.35;;;;;;;;;;143744;592;45022;-57
2021/11/19 03:09:36;;;;;;;26.12;18.65;;;;;;;;;;143740;567;46021;-57
2021/11/19 03:12:05;;;;;;;23.85;17.40;;;;;;;;;;143728;564;48918;-57
2021/11/19 03:14:32;;;;;;;23.55;17.85;;;;;;;;;;143737;655;46018;-56
2021/11/19 03:17:00;;;;;;;25.70;19.00;;;;;;;;;;143743;582;45021;-56
2021/11/19 03:19:28;;;;;;;26.10;18.73;;;;;;;;;;143740;571;46023;-56
2021/11/19 03:21:55;;;;;;;31.65;19.15;;;;;;;;;;143741;572;46012;-57
2021/11/19 03:24:24;;;;;;;29.73;19.25;;;;;;;;;;143742;567;46019;-56
2021/11/19 03:26:53;;;;;;;23.20;18.15;;;;;;;;;;143744;657;46021;-56
2021/11/19 03:29:22;;;;;;;23.30;17.27;;;;;;;;;;143741;639;46022;-58
2021/11/19 03:31:50;;;;;;;27.10;18.10;;;;;;;;;;143737;740;46020;-57
2021/11/19 03:34:18;;;;;;;27.33;18.75;;;;;;;;;;143742;580;46018;-58
2021/11/19 03:36:48;;;;;;;27.27;18.67;;;;;;;;;;143744;604;45020;-56
2021/11/19 03:39:17;;;;;;;26.02;18.95;;;;;;;;;;143737;586;45022;-56
2021/11/19 03:41:45;;;;;;;25.62;18.23;;;;;;;;;;143740;591;46021;-56
2021/11/19 03:44:24;;;;;;;29.90;20.37;;;;;;;;;;143739;698;46020;-56
2021/11/19 03:47:00;;;;;;;28.98;20.48;;;;;;;;;;143738;589;46013;-58
2021/11/19 03:49:28;;;;;;;24.50;17.70;;;;;;;;;;143737;584;46021;-56
2021/11/19 03:52:17;;;;;;;23.55;17.45;;;;;;;;;;143738;572;46020;-56
2021/11/19 03:54:47;;;;;;;25.25;17.85;;;;;;;;;;143742;577;46019;-57
2021/11/19 03:57:16;;;;;;;25.37;17.45;;;;;;;;;;143743;688;46012;-57
2021/11/19 03:59:44;;;;;;;24.75;17.00;;;;;;;;;;143741;591;46020;-58
2021/11/19 04:02:12;;;;;;;24.65;17.23;;;;;;;;;;143738;583;46013;-57
2021/11/19 04:04:40;;;;;;;28.05;18.12;;;;;;;;;;143737;571;46018;-57
2021/11/19 04:07:10;;;;;;;25.15;17.83;;;;;;;;;;143742;576;45028;-58
2021/11/19 04:09:38;;;;;;;26.48;18.75;;;;;;;;;;143740;657;46021;-59
2021/11/19 04:12:06;;;;;;;28.80;20.35;;;;;;;;;;143741;569;46020;-59
2021/11/19 04:14:33;;;;;;;27.70;19.80;;;;;;;;;;143737;573;46018;-58
2021/11/19 04:17:00;;;;;;;27.35;20.17;;;;;;;;;;143744;582;45021;-58
2021/11/19 04:19:30;;;;;;;28.20;20.10;;;;;;;;;;143738;646;46021;-60
2021/11/19 04:22:05;;;;;;;33.17;20.48;;;;;;;;;;143741;569;46012;-59
2021/11/19 04:24:40;;;;;;;32.17;21.50;;;;;;;;;;143735;572;46020;-58
2021/11/19 04:27:09;;;;;;;28.17;21.23;;;;;;;;;;143743;564;45021;-59
2021/11/19 04:29:36;;;;;;;31.55;20.65;;;;;;;;;;143736;722;46020;-57
2021/11/19 04:32:04;;;;;;;25.60;19.75;;;;;;;;;;143742;610;46013;-58
2021/11/19 04:34:31;;;;;;;27.75;20.65;;;;;;;;;;143743;578;46018;-57
2021/11/19 04:36:58;;;;;;;29.50;20.75;;;;;;;;;;143740;660;45020;-58
2021/11/19 04:39:25;;;;;;;29.05;20.65;;;;;;;;;;143736;590;46022;-58
2021/11/19 04:41:53;;;;;;;31.08;18.23;;;;;;;;;;143737;572;46021;-57
2021/11/19 04:44:20;;;;;;;28.77;20.08;;;;;;;;;;143740;577;46020;-57
2021/11/19 04:46:48;;;;;;;30.15;20.40;;;;;;;;;;143743;616;45021;-56
2021/11/19 04:49:16;;;;;;;29.67;20.48;;;;;;;;;;143739;724;46023;-57
2021/11/19 04:51:45;;;;;;;27.75;20.08;;;;;;;;;;143738;578;46020;-56
2021/11/19 04:54:14;;;;;;;28.92;19.65;;;;;;;;;;143738;678;45043;-57
2021/11/19 04:56:43;;;;;;;27.98;19.80;;;;;;;;;;143742;600;45021;-57
2021/11/19 04:59:10;;;;;;;29.37;20.08;;;;;;;;;;143741;749;46022;-58
2021/11/19 05:01:40;;;;;;;27.90;21.08;;;;;;;;;;143737;660;46012;-56
2021/11/19 05:04:08;;;;;;;27.23;19.37;;;;;;;;;;143740;579;46020;-56
2021/11/19 05:06:35;;;;;;;27.27;18.98;;;;;;;;;;143741;569;46020;-56
2021/11/19 05:09:04;;;;;;;31.35;20.50;;;;;;;;;;143740;690;46021;-58
2021/11/19 05:11:50;;;;;;;26.33;19.05;;;;;;;;;;143739;569;46020;-56
2021/11/19 05:14:17;;;;;;;25.73;19.10;;;;;;;;;;143741;611;46020;-57
2021/11/19 05:16:44;;;;;;;24.00;17.92;;;;;;;;;;143741;584;46020;-56
2021/11/19 05:19:11;;;;;;;25.05;18.05;;;;;;;;;;143738;571;46020;-57
2021/11/19 05:21:38;;;;;;;29.83;18.35;;;;;;;;;;143743;573;45031;-57
2021/11/19 05:24:08;;;;;;;27.42;18.70;;;;;;;;;;143739;573;46020;-57
2021/11/19 05:26:40;;;;;;;25.25;18.50;;;;;;;;;;143742;621;45021;-57
2021/11/19 05:29:07;;;;;;;24.90;18.37;;;;;;;;;;143741;659;46020;-58
2021/11/19 05:31:35;;;;;;;28.65;18.17;;;;;;;;;;143736;572;46013;-56
2021/11/19 05:34:03;;;;;;;30.75;19.08;;;;;;;;;;143743;656;46018;-58
2021/11/19 05:36:30;;;;;;;24.75;16.67;;;;;;;;;;143744;593;45020;-56
2021/11/19 05:38:57;;;;;;;24.02;17.20;;;;;;;;;;143738;633;46021;-57
2021/11/19 05:41:26;;;;;;;24.87;16.55;;;;;;;;;;143740;651;46012;-58
2021/11/19 05:43:54;;;;;;;27.02;17.98;;;;;;;;;;143737;608;46018;-57
2021/11/19 05:46:24;;;;;;;23.23;17.55;;;;;;;;;;143741;592;45021;-58
2021/11/19 05:48:53;;;;;;;26.27;17.48;;;;;;;;;;143741;570;46023;-57
2021/11/19 05:51:22;;;;;;;27.15;18.67;;;;;;;;;;143739;635;46012;-56
2021/11/19 05:53:50;;;;;;;25.77;17.45;;;;;;;;;;143741;602;46019;-56
2021/11/19 05:56:19;;;;;;;29.83;17.52;;;;;;;;;;143741;569;45021;-57
2021/11/19 05:58:46;;;;;;;27.40;18.58;;;;;;;;;;143740;635;46020;-57
2021/11/19 06:01:17;;;;;;;24.37;17.33;;;;;;;;;;143738;582;46012;-58
2021/11/19 06:03:46;;;;;;;25.37;17.33;;;;;;;;;;143738;574;46021;-58
2021/11/19 06:06:14;;;;;;;31.17;17.50;;;;;;;;;;143741;693;45020;-58
2021/11/19 06:08:42;;;;;;;30.25;17.33;;;;;;;;;;143736;606;46022;-57
2021/11/19 06:11:17;;;;;;;25.98;16.98;;;;;;;;;;143738;572;46012;-58
2021/11/19 06:13:48;;;;;;;23.10;16.48;;;;;;;;;;143741;641;46018;-57
2021/11/19 06:16:23;;;;;;;20.67;15.57;;;;;;;;;;143743;593;45028;-57
2021/11/19 06:18:58;;;;;;;25.62;15.60;;;;;;;;;;143739;587;46020;-56
2021/11/19 06:21:30;;;;;;;;;;;;;;;;;;143742;975;46020;-57
2021/11/19 06:24:01;;;;;;;23.40;17.27;;;;;;;;;;143745;566;46021;-56
2021/11/19 06:26:31;;;;;;;20.98;14.60;;;;;;;;;;143740;637;45021;-57
2021/11/19 06:29:06;;;;;;;21.23;14.98;;;;;;;;;;143738;590;46022;-56
2021/11/19 06:31:39;;;;;;;20.85;15.15;;;;;;;;;;143736;623;46013;-58
2021/11/19 06:34:07;;;;;;;19.92;13.98;;;;;;;;;;143735;564;46018;-58
2021/11/19 06:36:34;;;;;;;29.63;15.85;;;;;;;;;;143737;585;45020;-58
2021/11/19 06:39:03;;;;;;;26.80;16.62;;;;;;;;;;143738;579;46022;-57
2021/11/19 06:41:33;;;;;;;24.65;16.00;;;;;;;;;;143740;650;46012;-56
2021/11/19 06:44:00;;;;;;;22.50;15.02;;;;;;;;;;143739;613;46020;-57
2021/11/19 06:46:27;;;;;;;21.40;15.20;;;;;;;;;;143741;620;45021;-57
2021/11/19 06:48:54;;;;;;;24.10;15.18;;;;;;;;;;143738;565;46023;-57
2021/11/19 06:51:22;;;;;;;22.17;14.95;;;;;;;;;;143737;614;45020;-57
2021/11/19 06:53:50;;;;;;;22.02;14.75;;;;;;;;;;143736;599;46020;-57
2021/11/19 06:56:18;;;;;;;25.88;14.90;;;;;;;;;;143740;621;45021;-58
2021/11/19 06:58:45;;;;;;;26.35;14.43;;;;;;;;;;143733;595;46020;-58
2021/11/19 07:01:13;;;;;;;22.60;15.10;;;;;;;;;;143733;565;46013;-57
2021/11/19 07:03:40;;;;;;;24.05;14.95;;;;;;;;;;143737;579;46020;-57
2021/11/19 07:06:07;;;;;;;18.08;13.43;;;;;;;;;;143736;670;45020;-57
2021/11/19 07:08:34;;;;;;;20.50;14.15;;;;;;;;;;143738;596;46021;-57
2021/11/19 07:11:05;;;;;;;20.62;14.55;;;;;;;;;;143737;566;46012;-58
2021/11/19 07:13:32;;;;;;;22.20;14.73;;;;;;;;;;143741;569;45042;-57
2021/11/19 07:16:00;;;;;;;20.80;13.52;;;;;;;;;;143740;716;45021;-56
2021/11/19 07:18:27;;;;;;;21.83;13.75;;;;;;;;;;143737;603;46020;-56
2021/11/19 07:20:55;;;;;;;20.48;14.02;;;;;;;;;;143738;569;46020;-56
2021/11/19 07:23:22;;;;;;;19.37;14.27;;;;;;;;;;143733;629;46021;-56
2021/11/19 07:25:50;;;;;;;25.08;15.50;;;;;;;;;;143741;589;45021;-58
2021/11/19 07:28:19;;;;;;;31.92;19.20;;;;;;;;;;143739;619;46022;-56
2021/11/19 07:30:51;;;;;;;31.30;18.52;;;;;;;;;;143735;569;46013;-56
2021/11/19 07:33:19;;;;;;;27.98;18.20;;;;;;;;;;143742;701;45044;-57
2021/11/19 07:35:47;;;;;;;30.95;17.52;;;;;;;;;;143742;587;45020;-56
2021/11/19 07:38:16;;;;;;;22.08;15.73;;;;;;;;;;143739;578;46022;-56
2021/11/19 07:40:44;;;;;;;31.05;15.93;;;;;;;;;;143738;592;46012;-56
2021/11/19 07:43:13;;;;;;;23.20;15.32;;;;;;;;;;143739;609;46018;-56
2021/11/19 07:45:41;;;;;;;24.45;16.75;;;;;;;;;;143740;586;45021;-57
2021/11/19 07:48:14;;;;;;;19.40;14.60;;;;;;;;;;143734;577;46020;-56
2021/11/19 07:50:44;;;;;;;22.55;14.90;;;;;;;;;;143739;600;46012;-56
2021/11/19 07:53:11;;;;;;;20.75;14.60;;;;;;;;;;143738;617;46021;-56
2021/11/19 07:55:37;;;;;;;23.20;14.32;;;;;;;;;;143733;591;47010;-58
2021/11/19 07:58:05;;;;;;;27.85;15.60;;;;;;;;;;143738;643;46022;-56
2021/11/19 08:00:36;;;;;;;25.70;14.00;;;;;;;;;;143734;572;46013;-56
2021/11/19 08:03:03;;;;;;;22.25;14.60;;;;;;;;;;143739;572;46012;-57
2021/11/19 08:05:31;;;;;;;22.23;14.52;;;;;;;;;;143736;564;46010;-57
2021/11/19 08:07:57;;;;;;;27.42;14.45;;;;;;;;;;143737;572;46021;-57
2021/11/19 08:10:24;;;;;;;20.48;14.32;;;;;;;;;;143736;656;46020;-58
2021/11/19 08:12:51;;;;;;;20.40;14.35;;;;;;;;;;143734;607;46020;-57
2021/11/19 08:15:21;;;;;;;22.33;13.02;;;;;;;;;;143736;613;45021;-56
2021/11/19 08:17:52;;;;;;;19.67;13.75;;;;;;;;;;143735;578;46023;-57
2021/11/19 08:20:25;;;;;;;22.80;14.05;;;;;;;;;;143738;582;46012;-56
2021/11/19 08:22:53;;;;;;;20.30;13.80;;;;;;;;;;143737;579;46020;-56
2021/11/19 08:25:20;;;;;;;32.60;17.83;;;;;;;;;;143740;580;45024;-56
2021/11/19 08:27:51;;;;;;;31.40;19.10;;;;;;;;;;143738;687;46020;-57
2021/11/19 08:30:22;;;;;;;27.37;16.33;;;;;;;;;;143737;609;46918;-57
2021/11/19 08:32:49;;;;;;;21.60;14.05;;;;;;;;;;143739;608;46018;-58
2021/11/19 08:35:17;;;;;;;24.80;14.32;;;;;;;;;;143740;593;45020;-56
2021/11/19 08:37:45;;;;;;;18.48;12.85;;;;;;;;;;143734;597;46022;-57
2021/11/19 08:40:14;;;;;;;19.35;13.43;;;;;;;;;;143738;609;46012;-58
2021/11/19 08:42:41;;;;;;;18.08;12.40;;;;;;;;;;143738;600;46018;-56
2021/11/19 08:45:10;;;;;;;15.70;11.65;;;;;;;;;;143743;615;45021;-56
2021/11/19 08:47:37;;;;;;;19.23;13.02;;;;;;;;;;143740;582;46023;-55
2021/11/19 08:50:06;;;;;;;16.20;11.95;;;;;;;;;;143736;607;46012;-57
2021/11/19 08:52:34;;;;;;;16.77;11.52;;;;;;;;;;143740;714;46021;-57
2021/11/19 08:55:03;;;;;;;17.77;12.10;;;;;;;;;;143740;625;45021;-56
2021/11/19 08:57:32;;;;;;;17.17;12.43;;;;;;;;;;143739;616;47020;-57
2021/11/19 08:59:59;;;;;;;15.35;11.40;;;;;;;;;;143739;583;46013;-57
2021/11/19 09:02:27;;;;;;;19.25;12.48;;;;;;;;;;143735;602;46018;-57
2021/11/19 09:04:55;;;;;;;19.45;13.52;;;;;;;;;;143741;579;45020;-56
2021/11/19 09:07:23;;;;;;;19.12;11.68;;;;;;;;;;143739;565;46022;-58
2021/11/19 09:09:51;;;;;;;15.90;11.02;;;;;;;;;;143735;594;46020;-56
2021/11/19 09:12:18;;;;;;;20.02;10.88;;;;;;;;;;143741;608;46018;-57
2021/11/19 09:14:45;;;;;;;16.87;11.70;;;;;;;;;;143741;570;46010;-57
2021/11/19 09:17:57;;;;;;;16.25;11.38;;;;;;;;;;143741;661;46020;-57
2021/11/19 09:21:06;;;;;;;16.30;10.65;;;;;;;;;;143738;580;46012;-55
2021/11/19 09:23:44;;;;;;;16.62;10.68;;;;;;;;;;143738;566;46018;-55
2021/11/19 09:26:16;;;;;;;17.00;11.63;;;;;;;;;;143742;574;45020;-56
2021/11/19 09:28:47;;;;;;;16.35;10.65;;;;;;;;;;143732;591;46022;-55
2021/11/19 09:31:17;;;;;;;14.87;10.88;;;;;;;;;;143737;579;46012;-55
2021/11/19 09:33:47;;;;;;;14.98;10.30;;;;;;;;;;143739;635;46020;-56
2021/11/19 09:36:14;;;;;;;15.48;10.48;;;;;;;;;;143741;570;45032;-56
2021/11/19 09:38:41;;;;;;;23.23;11.02;;;;;;;;;;143738;620;46020;-55
2021/11/19 09:42:05;;;;;;;17.30;10.55;;;;;;;;;;143736;571;46012;-57
2021/11/19 09:45:24;;;;;;;18.35;10.60;;;;;;;;;;143740;567;46019;-57
2021/11/19 09:48:44;;;;;;;16.45;10.13;;;;;;;;;;143742;578;45020;-57
2021/11/19 09:51:56;;;;;;;17.90;9.73;;;;;;;;;;143739;572;46022;-55
2021/11/19 09:55:05;;;;;;;16.83;10.05;;;;;;;;;;143740;580;46012;-55
2021/11/19 09:58:06;;;;;;;19.55;10.73;;;;;;;;;;143735;597;46018;-55
2021/11/19 10:01:27;;;;;;;17.42;10.35;;;;;;;;;;143742;622;45031;-55
2021/11/19 10:04:20;;;;;;;13.88;10.00;;;;;;;;;;143738;625;46022;-57
2021/11/19 10:07:44;;;;;;;16.42;10.65;;;;;;;;;;143737;588;46013;-57
2021/11/19 10:11:08;;;;;;;16.95;10.35;;;;;;;;;;143738;614;46018;-55
2021/11/19 10:14:13;;;;;;;21.12;10.05;;;;;;;;;;143740;569;45027;-56
2021/11/19 10:17:36;;;;;;;17.17;10.90;;;;;;;;;;143741;582;45023;-56
2021/11/19 10:20:28;;;;;;;13.95;10.15;;;;;;;;;;143738;590;46012;-57
2021/11/19 10:23:31;;;;;;;13.05;10.05;;;;;;;;;;143737;590;46021;-57
2021/11/19 10:26:21;;;;;;;18.12;10.27;;;;;;;;;;143740;612;46020;-56
2021/11/19 10:29:11;;;;;;;17.60;11.50;;;;;;;;;;143734;606;46021;-57
2021/11/19 10:31:38;;;;;;;15.82;10.45;;;;;;;;;;143736;712;46012;-55
2021/11/19 10:34:45;;;;;;;15.60;11.07;;;;;;;;;;143741;677;46018;-55
2021/11/19 10:37:54;;;;;;;18.95;10.05;;;;;;;;;;143742;581;45038;-57
2021/11/19 10:41:18;;;;;;;15.80;10.50;;;;;;;;;;143740;639;46020;-56
2021/11/19 10:44:39;;;;;;;16.00;9.82;;;;;;;;;;143738;567;45021;-57
2021/11/19 10:47:41;;;;;;;13.73;10.02;;;;;;;;;;143739;602;46020;-55
2021/11/19 10:51:00;;;;;;;15.80;10.73;;;;;;;;;;143741;581;46020;-56
2021/11/19 10:54:11;;;;;;;18.30;9.68;;;;;;;;;;143738;576;46023;-55
2021/11/19 10:57:38;;;;;;;23.12;10.40;;;;;;;;;;143742;600;45029;-56
2021/11/19 11:00:35;;;;;;;13.88;9.48;;;;;;;;;;143734;580;46018;-55
2021/11/19 11:03:10;;;;;;;15.20;10.77;;;;;;;;;;143741;564;46010;-56
2021/11/19 11:05:39;;;;;;;;;;;;;;;;;;143745;955;46021;-55
2021/11/19 11:08:33;;;;;;;17.52;10.13;;;;;;;;;;143745;566;46013;-57
2021/11/19 11:11:09;;;;;;;14.20;9.63;;;;;;;;;;143739;577;46018;-57
2021/11/19 11:13:43;;;;;;;17.10;9.60;;;;;;;;;;143743;589;45021;-57
2021/11/19 11:16:27;;;;;;;16.42;9.93;;;;;;;;;;143741;643;46020;-57
2021/11/19 11:19:32;;;;;;;19.87;9.52;;;;;;;;;;143740;580;46012;-56
2021/11/19 11:22:11;;;;;;;41.50;23.23;;;;;;;;;;143742;565;45023;-56
2021/11/19 11:25:02;;;;;;;30.30;19.62;;;;;;;;;;143736;587;46012;-57
2021/11/19 11:27:56;;;;;;;27.27;18.52;;;;;;;;;;143733;586;46020;-55
2021/11/19 11:30:45;;;;;;;21.95;13.93;;;;;;;;;;143737;570;46012;-55
2021/11/19 11:33:33;;;;;;;22.08;12.70;;;;;;;;;;143737;614;46020;-56
2021/11/19 11:36:19;;;;;;;21.15;12.80;;;;;;;;;;143741;597;45027;-57
2021/11/19 11:39:24;;;;;;;14.93;10.23;;;;;;;;;;143739;595;46023;-57
2021/11/19 11:42:01;;;;;;;13.60;9.50;;;;;;;;;;143739;588;46012;-55
2021/11/19 11:44:47;;;;;;;14.68;10.95;;;;;;;;;;143738;582;46018;-55
2021/11/19 11:47:46;;;;;;;15.88;10.63;;;;;;;;;;143742;576;45020;-57
2021/11/19 11:50:53;;;;;;;15.23;11.10;;;;;;;;;;143738;610;46024;-55
2021/11/19 11:53:24;;;;;;;21.75;11.52;;;;;;;;;;143740;609;46012;-57
2021/11/19 11:56:23;;;;;;;15.48;10.07;;;;;;;;;;143734;586;46015;-55
2021/11/19 11:59:17;;;;;;;21.62;9.80;;;;;;;;;;143738;578;46014;-57
2021/11/19 12:02:03;;;;;;;20.10;9.95;;;;;;;;;;143740;588;46020;-56
2021/11/19 12:05:07;;;;;;;17.60;9.95;;;;;;;;;;143741;571;46012;-55
2021/11/19 12:08:01;;;;;;;21.10;10.13;;;;;;;;;;143741;583;46018;-57
2021/11/19 12:11:02;;;;;;;18.08;9.60;;;;;;;;;;143741;591;46012;-55
2021/11/19 12:14:09;;;;;;;16.05;10.02;;;;;;;;;;143741;591;46021;-57
2021/11/19 12:17:00;;;;;;;13.88;9.80;;;;;;;;;;143736;585;46012;-56
2021/11/19 12:20:01;;;;;;;15.10;10.38;;;;;;;;;;143740;569;46018;-57
2021/11/19 12:22:49;;;;;;;14.48;10.05;;;;;;;;;;143743;566;45021;-56
2021/11/19 12:25:51;;;;;;;14.60;10.70;;;;;;;;;;143734;579;46020;-57
2021/11/19 12:28:24;;;;;;;15.75;9.73;;;;;;;;;;143737;612;46012;-57
2021/11/19 12:31:36;;;;;;;15.35;9.85;;;;;;;;;;143740;611;46020;-57
2021/11/19 12:34:24;;;;;;;17.92;10.32;;;;;;;;;;143744;577;45020;-57
2021/11/19 12:37:03;;;;;;;17.15;11.15;;;;;;;;;;143739;677;46043;-57
2021/11/19 12:39:34;;;;;;;14.63;10.13;;;;;;;;;;143740;587;46012;-57
2021/11/19 12:42:23;;;;;;;15.32;10.10;;;;;;;;;;143741;646;46019;-56
2021/11/19 12:45:24;;;;;;;17.58;10.45;;;;;;;;;;143741;569;46012;-57
2021/11/19 12:48:27;;;;;;;15.48;10.63;;;;;;;;;;143740;566;46022;-55
2021/11/19 12:51:18;;;;;;;14.05;9.63;;;;;;;;;;143738;639;46013;-56
2021/11/19 12:54:34;;;;;;;13.93;9.85;;;;;;;;;;143734;589;46020;-58
2021/11/19 12:57:58;;;;;;;14.20;10.80;;;;;;;;;;143744;583;45020;-56
2021/11/19 13:00:56;;;;;;;15.00;10.20;;;;;;;;;;143739;578;46023;-58
2021/11/19 13:03:46;;;;;;;17.35;10.55;;;;;;;;;;143742;606;46012;-58
2021/11/19 13:06:47;;;;;;;14.80;10.50;;;;;;;;;;143737;601;47020;-58
2021/11/19 13:09:43;;;;;;;14.13;9.93;;;;;;;;;;143740;575;45022;-56
2021/11/19 13:12:33;;;;;;;15.82;10.85;;;;;;;;;;143740;648;46020;-56
2021/11/19 13:15:51;;;;;;;18.40;10.38;;;;;;;;;;143736;587;46013;-56
2021/11/19 13:18:46;;;;;;;15.77;11.50;;;;;;;;;;143734;612;46020;-57
2021/11/19 13:21:43;;;;;;;20.90;14.40;;;;;;;;;;143743;602;45022;-56
2021/11/19 13:24:52;;;;;;;20.15;14.25;;;;;;;;;;143735;610;46022;-56
2021/11/19 13:27:40;;;;;;;14.73;11.30;;;;;;;;;;143737;676;46012;-56
2021/11/19 13:30:53;;;;;;;18.02;11.38;;;;;;;;;;143740;578;46023;-55
2021/11/19 13:33:23;;;;;;;21.42;13.15;;;;;;;;;;143742;589;45031;-57
2021/11/19 13:36:31;;;;;;;21.48;12.30;;;;;;;;;;143740;578;46022;-57
2021/11/19 13:39:32;;;;;;;16.98;12.52;;;;;;;;;;143733;571;46012;-58
2021/11/19 13:42:23;;;;;;;15.98;11.45;;;;;;;;;;143738;571;46020;-58
2021/11/19 13:45:11;;;;;;;17.02;11.77;;;;;;;;;;143743;593;45021;-58
2021/11/19 13:47:52;;;;;;;17.10;11.95;;;;;;;;;;143741;564;46022;-56
2021/11/19 13:50:45;;;;;;;17.70;12.52;;;;;;;;;;143740;593;46020;-58
2021/11/19 13:53:22;;;;;;;15.82;11.88;;;;;;;;;;143734;623;46020;-56
2021/11/19 13:56:20;;;;;;;15.15;11.15;;;;;;;;;;143741;585;45020;-57
2021/11/19 13:58:58;;;;;;;16.52;12.15;;;;;;;;;;143742;593;46020;-57
2021/11/19 14:01:52;;;;;;;17.85;11.70;;;;;;;;;;143738;572;46012;-58
2021/11/19 14:04:31;;;;;;;17.40;10.90;;;;;;;;;;143741;597;46020;-58
2021/11/19 14:07:28;;;;;;;18.77;11.40;;;;;;;;;;143743;576;45021;-57
2021/11/19 14:10:43;;;;;;;17.02;11.25;;;;;;;;;;143741;578;46020;-57
2021/11/19 14:13:40;;;;;;;15.93;11.40;;;;;;;;;;143734;701;46013;-57
2021/11/19 14:16:10;;;;;;;15.00;11.38;;;;;;;;;;143740;675;46020;-56
2021/11/19 14:18:56;;;;;;;18.35;11.02;;;;;;;;;;143744;581;45020;-57
2021/11/19 14:24:34;;;;;;;16.10;11.65;;;;;;;;;;143742;569;46020;-56
2021/11/19 14:27:21;;;;;;;17.95;11.68;;;;;;;;;;143743;633;46019;-56
2021/11/19 14:29:55;;;;;;;16.25;11.77;;;;;;;;;;143743;606;46021;-56
2021/11/19 14:32:41;;;;;;;16.87;11.20;;;;;;;;;;143742;612;46020;-57
2021/11/19 14:35:33;;;;;;;17.02;11.77;;;;;;;;;;143738;575;46012;-57
2021/11/19 14:38:04;;;;;;;16.20;11.90;;;;;;;;;;143740;572;46018;-57
2021/11/19 14:40:44;;;;;;;15.60;12.02;;;;;;;;;;143744;583;45020;-57
2021/11/19 14:43:21;;;;;;;15.43;11.65;;;;;;;;;;143741;581;46021;-56
2021/11/19 14:45:51;;;;;;;16.15;11.63;;;;;;;;;;143737;613;46012;-57
2021/11/19 14:48:33;;;;;;;17.67;12.18;;;;;;;;;;143737;622;46020;-58
2021/11/19 14:51:28;;;;;;;17.40;12.02;;;;;;;;;;143743;666;45021;-58
2021/11/19 14:53:59;;;;;;;17.60;13.20;;;;;;;;;;143740;607;46022;-58
2021/11/19 14:57:10;;;;;;;15.40;12.05;;;;;;;;;;143739;616;46013;-57
2021/11/19 14:59:59;;;;;;;17.90;12.80;;;;;;;;;;143741;592;46020;-56
2021/11/19 15:02:45;;;;;;;21.00;12.93;;;;;;;;;;143741;590;45020;-56
2021/11/19 15:05:16;;;;;;;15.25;12.40;;;;;;;;;;143743;616;46012;-56
2021/11/19 15:07:53;;;;;;;20.98;13.65;;;;;;;;;;143739;605;46012;-58
2021/11/19 15:10:40;;;;;;;18.40;12.55;;;;;;;;;;143741;628;46018;-56
2021/11/19 15:13:55;;;;;;;19.02;12.80;;;;;;;;;;143744;605;45021;-57
2021/11/19 15:17:03;;;;;;;21.25;13.45;;;;;;;;;;143735;585;46020;-57
2021/11/19 15:19:40;;;;;;;17.37;12.40;;;;;;;;;;143742;698;46013;-58
2021/11/19 15:22:30;;;;;;;23.95;13.52;;;;;;;;;;143740;605;46018;-58
2021/11/19 15:25:09;;;;;;;17.48;12.68;;;;;;;;;;143745;575;45022;-57
2021/11/19 15:27:50;;;;;;;17.87;13.52;;;;;;;;;;143740;590;46021;-57
2021/11/19 15:30:52;;;;;;;21.65;13.35;;;;;;;;;;143740;627;46020;-56